Time;durP1;ratioP1;P1;durP2;ratioP2;P2;SDS_P1;SDS_P2;PMS_P1;PMS_P2;Temp;Humidity;BMP_temperature;BMP_pressure;BME280_temperature;BME280_humidity;BME280_pressure;Samples;Min_cycle;Max_cycle;Signal;HPM_P1;HPM_P2
2022/10/09 00:03:05;;;;;;;7.87;3.23;;;;;;;8.94;98.45;101148.53;3479317;83;34921;-80
2022/10/09 00:08:06;;;;;;;11.27;3.70;;;;;;;8.92;98.47;101137.08;3488421;83;98356;-80
2022/10/09 00:13:07;;;;;;;8.63;3.70;;;;;;;8.83;98.63;101149.58;3489621;83;36041;-80
2022/10/09 00:18:10;;;;;;;11.13;3.80;;;;;;;8.72;98.87;101155.92;3487680;82;98290;-80
2022/10/09 00:23:17;;;;;;;8.30;3.33;;;;;;;8.76;99.51;101157.61;3494186;83;26227;-80
2022/10/09 00:28:18;;;;;;;9.03;3.87;;;;;;;8.77;99.07;101164.70;3475622;83;98248;-81
2022/10/09 00:33:20;;;;;;;10.80;4.72;;;;;;;8.75;99.19;101172.48;3477808;83;31698;-81
2022/10/09 00:38:21;;;;;;;7.17;3.80;;;;;;;8.70;99.02;101176.84;3482426;83;98089;-80
2022/10/09 00:43:46;;;;;;;7.17;3.80;;;;;;;8.67;99.34;101180.86;3495664;83;25892;-81
2022/10/09 00:48:52;;;;;;;8.50;3.20;;;;;;;8.60;99.08;101187.48;3485900;84;27866;-80
2022/10/09 00:53:53;;;;;;;7.92;3.20;;;;;;;8.54;99.14;101188.30;3475377;83;98444;-80
2022/10/09 00:58:57;;;;;;;7.53;3.20;;;;;;;8.53;99.27;101190.81;3492892;84;26365;-80
2022/10/09 01:03:57;;;;;;;7.37;3.70;;;;;;;8.47;99.18;101196.31;3483098;83;99330;-80
2022/10/09 01:09:12;;;;;;;7.17;3.07;;;;;;;8.51;99.72;101200.53;3494745;83;25868;-80
2022/10/09 01:14:31;;;;;;;8.25;3.42;;;;;;;8.51;99.35;101199.17;3484426;82;98419;-80
2022/10/09 01:20:08;;;;;;;10.03;3.12;;;;;;;8.50;99.19;101204.42;3489610;83;31265;-80
2022/10/09 01:25:23;;;;;;;8.83;2.72;;;;;;;8.51;99.56;101206.80;3480599;83;98846;-80
2022/10/09 01:30:24;;;;;;;6.42;2.85;;;;;;;8.46;99.62;101210.37;3469483;83;31738;-80
2022/10/09 01:35:26;;;;;;;7.37;3.03;;;;;;;8.48;99.30;101214.37;3484827;82;98386;-80
2022/10/09 01:40:28;;;;;;;9.80;3.20;;;;;;;8.40;99.17;101212.53;3481296;82;26418;-80
2022/10/09 01:45:39;;;;;;;9.80;3.22;;;;;;;8.35;99.20;101221.57;3491911;82;98506;-80
2022/10/09 01:50:44;;;;;;;9.63;3.00;;;;;;;8.26;99.33;101235.39;3485881;83;32254;-80
2022/10/09 01:56:02;;;;;;;6.22;2.62;;;;;;;8.28;99.33;101233.09;3496811;82;98441;-80
2022/10/09 02:01:22;;;;;;;6.53;2.67;;;;;;;8.24;99.39;101239.62;3496561;83;28884;-81
2022/10/09 02:06:26;;;;;;;8.78;3.33;;;;;;;8.21;99.44;101243.84;3505316;83;98635;-80
2022/10/09 02:11:31;;;;;;;6.97;2.93;;;;;;;8.14;99.24;101251.81;3489599;83;27892;-80
2022/10/09 02:16:42;;;;;;;7.53;2.90;;;;;;;8.18;99.44;101249.18;3485157;83;98539;-81
2022/10/09 02:22:03;;;;;;;8.10;2.87;;;;;;;8.17;99.46;101266.19;3495513;83;26407;-80
2022/10/09 02:27:05;;;;;;;5.27;2.77;;;;;;;8.15;99.19;101275.34;3480389;83;98040;-80
2022/10/09 02:32:06;;;;;;;8.70;3.27;;;;;;;8.13;99.05;101282.30;3483421;82;30121;-81
2022/10/09 02:37:07;;;;;;;10.73;3.47;;;;;;;8.12;99.10;101275.22;3491637;83;98063;-80
2022/10/09 02:42:09;;;;;;;9.90;2.70;;;;;;;8.11;99.17;101274.41;3483819;83;26326;-81
2022/10/09 02:47:10;;;;;;;5.07;2.33;;;;;;;8.08;98.62;101279.19;3507677;82;98261;-81
2022/10/09 02:52:11;;;;;;;7.53;2.70;;;;;;;8.08;98.90;101283.89;3492874;83;34875;-80
2022/10/09 02:57:11;;;;;;;7.13;3.17;;;;;;;8.04;98.89;101288.44;3474759;83;98287;-82
2022/10/09 03:02:12;;;;;;;7.00;3.07;;;;;;;8.05;98.99;101301.81;3486221;83;34947;-82
2022/10/09 03:07:13;;;;;;;6.53;2.70;;;;;;;8.03;98.82;101304.66;3466027;83;98248;-82
2022/10/09 03:12:19;;;;;;;7.90;2.47;;;;;;;7.97;98.45;101311.50;3484211;84;34854;-79
2022/10/09 03:17:16;;;;;;;8.67;2.80;;;;;;;7.90;98.47;101320.85;3482820;84;98121;-79
2022/10/09 03:22:18;;;;;;;10.60;2.70;;;;;;;7.77;98.44;101320.55;3482570;83;34954;-79
2022/10/09 03:27:19;;;;;;;11.63;3.30;;;;;;;7.71;98.62;101326.83;3477397;83;98462;-79
2022/10/09 03:32:20;;;;;;;9.83;2.90;;;;;;;7.56;98.97;101344.42;3495816;84;35579;-79
2022/10/09 03:37:21;;;;;;;7.03;3.00;;;;;;;7.44;99.08;101349.28;3472153;84;98447;-79
2022/10/09 03:42:21;;;;;;;7.40;2.97;;;;;;;7.49;99.68;101357.30;3478576;83;35433;-79
2022/10/09 03:47:22;;;;;;;6.70;2.95;;;;;;;7.49;99.64;101355.13;3491831;83;98285;-79
2022/10/09 03:52:23;;;;;;;5.37;2.67;;;;;;;7.53;99.72;101353.33;3501469;83;27194;-80
2022/10/09 03:57:24;;;;;;;9.40;2.73;;;;;;;7.53;99.13;101361.55;3484336;83;98299;-80
2022/10/09 04:02:25;;;;;;;5.83;2.40;;;;;;;7.43;99.38;101362.75;3485319;84;33574;-80
2022/10/09 04:07:26;;;;;;;7.70;2.57;;;;;;;7.45;99.33;101366.50;3472117;83;98435;-81
2022/10/09 04:12:26;;;;;;;7.77;3.03;;;;;;;7.48;99.46;101369.37;3495340;84;33213;-81
2022/10/09 04:17:27;;;;;;;9.10;2.60;;;;;;;7.46;99.05;101370.28;3475364;83;97989;-81
2022/10/09 04:22:28;;;;;;;8.77;2.47;;;;;;;7.44;99.23;101371.75;3482331;84;32441;-81
2022/10/09 04:27:29;;;;;;;8.73;3.12;;;;;;;7.46;99.27;101373.58;3493874;83;98246;-81
2022/10/09 04:32:30;;;;;;;9.75;2.50;;;;;;;7.47;99.11;101377.94;3504933;83;31212;-81
2022/10/09 04:37:31;;;;;;;7.27;3.70;;;;;;;7.43;98.79;101368.23;3486393;83;98397;-81
2022/10/09 04:42:31;;;;;;;9.03;3.57;;;;;;;7.41;98.90;101382.80;3465540;84;25894;-82
2022/10/09 04:47:33;;;;;;;7.00;2.50;;;;;;;7.40;98.51;101386.68;3468589;84;98272;-81
2022/10/09 04:52:34;;;;;;;11.00;2.80;;;;;;;7.36;98.65;101390.42;3469419;83;25784;-81
2022/10/09 04:57:35;;;;;;;7.77;2.83;;;;;;;7.37;98.53;101401.61;3466016;83;98446;-82
2022/10/09 05:02:35;;;;;;;8.93;2.67;;;;;;;7.32;98.21;101402.58;3456666;84;26705;-82
2022/10/09 05:07:37;;;;;;;7.33;3.00;;;;;;;7.28;98.33;101407.14;3468109;83;97899;-81
2022/10/09 05:12:38;;;;;;;6.37;2.90;;;;;;;7.23;98.03;101410.06;3462240;84;26243;-82
2022/10/09 05:17:39;;;;;;;7.60;2.40;;;;;;;7.18;98.02;101421.20;3454973;83;98260;-81
2022/10/09 05:22:39;;;;;;;9.43;2.65;;;;;;;7.13;98.12;101424.67;3467161;83;26631;-82
2022/10/09 05:27:40;;;;;;;8.40;2.47;;;;;;;7.09;98.12;101434.70;3447492;83;98026;-82
2022/10/09 05:32:41;;;;;;;8.97;2.70;;;;;;;7.09;98.32;101439.59;3458973;83;33287;-81
2022/10/09 05:37:44;;;;;;;7.47;2.70;;;;;;;7.08;98.33;101445.39;3455441;84;98640;-81
2022/10/09 05:42:48;;;;;;;6.93;2.63;;;;;;;7.01;98.14;101450.03;3472976;84;26442;-82
2022/10/09 05:47:49;;;;;;;7.12;3.22;;;;;;;6.97;98.08;101455.09;3481139;83;98372;-81
2022/10/09 05:52:50;;;;;;;10.00;2.90;;;;;;;6.87;98.28;101462.32;3483068;84;33695;-82
2022/10/09 05:57:52;;;;;;;8.50;2.53;;;;;;;6.86;98.83;101472.45;3489728;82;98448;-81
2022/10/09 06:02:53;;;;;;;7.50;2.77;;;;;;;6.79;98.99;101472.16;3503060;83;33226;-81
2022/10/09 06:07:54;;;;;;;14.87;3.60;;;;;;;6.78;99.08;101481.50;3489143;83;98335;-82
2022/10/09 06:12:55;;;;;;;8.33;2.73;;;;;;;6.71;99.85;101488.02;3496696;83;33346;-81
2022/10/09 06:17:56;;;;;;;12.37;4.80;;;;;;;6.69;100.00;101499.05;3484025;82;98328;-81
2022/10/09 06:22:57;;;;;;;10.90;3.60;;;;;;;6.68;100.00;101500.17;3484043;83;33237;-80
2022/10/09 06:27:57;;;;;;;10.82;3.02;;;;;;;6.73;100.00;101502.74;3483742;82;98457;-80
2022/10/09 06:32:58;;;;;;;12.23;4.00;;;;;;;6.75;100.00;101507.31;3486833;83;33212;-80
2022/10/09 06:37:59;;;;;;;10.03;3.55;;;;;;;6.79;100.00;101514.56;3468276;83;98759;-80
2022/10/09 06:43:00;;;;;;;14.07;3.97;;;;;;;6.87;100.00;101523.89;3473256;84;31712;-80
2022/10/09 06:48:00;;;;;;;20.00;4.10;;;;;;;6.95;100.00;101525.23;3459514;84;98758;-80
2022/10/09 06:53:05;;;;;;;9.43;3.63;;;;;;;7.05;100.00;101534.47;3466331;84;31593;-80
2022/10/09 06:58:06;;;;;;;10.43;4.00;;;;;;;7.18;100.00;101543.03;3465734;83;98598;-80
2022/10/09 07:03:07;;;;;;;12.13;4.30;;;;;;;7.32;100.00;101550.45;3452966;84;31658;-80
2022/10/09 07:08:07;;;;;;;12.68;4.42;;;;;;;7.45;100.00;101566.44;3459139;84;98353;-80
2022/10/09 07:13:08;;;;;;;16.80;4.80;;;;;;;7.59;100.00;101562.34;3459014;84;31704;-81
2022/10/09 07:18:09;;;;;;;18.10;4.70;;;;;;;7.74;100.00;101568.64;3461429;83;98467;-81
2022/10/09 07:23:09;;;;;;;14.07;4.27;;;;;;;7.92;100.00;101577.00;3474675;84;31597;-81
2022/10/09 07:28:10;;;;;;;12.20;4.55;;;;;;;8.09;100.00;101580.22;3454063;84;98626;-81
2022/10/09 07:33:11;;;;;;;8.80;3.37;;;;;;;8.26;100.00;101584.25;3464992;84;25948;-81
2022/10/09 07:38:12;;;;;;;11.63;4.07;;;;;;;8.40;100.00;101584.80;3463080;84;98272;-82
2022/10/09 07:43:12;;;;;;;10.47;3.93;;;;;;;8.55;100.00;101584.17;3488161;83;25845;-82
2022/10/09 07:48:13;;;;;;;7.77;3.63;;;;;;;8.69;100.00;101589.65;3491103;82;98774;-81
2022/10/09 07:53:14;;;;;;;12.90;4.07;;;;;;;8.81;100.00;101595.19;3507527;84;34854;-81
2022/10/09 07:58:16;;;;;;;11.67;4.33;;;;;;;8.95;100.00;101594.90;3491190;83;98791;-82
2022/10/09 08:03:17;;;;;;;12.93;4.53;;;;;;;9.14;100.00;101602.86;3504467;84;34953;-82
2022/10/09 08:08:17;;;;;;;14.50;4.50;;;;;;;9.34;100.00;101602.00;3490766;83;98728;-82
2022/10/09 08:13:18;;;;;;;10.30;4.22;;;;;;;9.54;100.00;101601.10;3510217;83;34910;-82
2022/10/09 08:18:19;;;;;;;12.40;4.40;;;;;;;9.75;100.00;101611.44;3488815;84;98748;-82
2022/10/09 08:23:20;;;;;;;12.40;5.10;;;;;;;9.97;100.00;101615.70;3487384;83;31078;-82
2022/10/09 08:28:21;;;;;;;12.63;5.23;;;;;;;10.27;100.00;101627.52;3478379;83;98726;-82
2022/10/09 08:33:23;;;;;;;13.97;6.13;;;;;;;10.59;100.00;101623.79;3503391;84;27150;-82
2022/10/09 08:38:24;;;;;;;12.83;4.93;;;;;;;10.98;100.00;101622.16;3479891;83;99121;-83
2022/10/09 08:43:35;;;;;;;11.73;5.00;;;;;;;11.37;100.00;101631.73;3488063;83;27331;-82
2022/10/09 08:48:40;;;;;;;13.32;4.75;;;;;;;11.82;100.00;101631.36;3499703;82;98769;-83
2022/10/09 08:54:04;;;;;;;11.10;4.20;;;;;;;12.35;100.00;101630.66;3490776;83;35339;-83
2022/10/09 08:59:07;;;;;;;11.38;4.55;;;;;;;13.03;100.00;101636.72;3486528;83;34916;-81
2022/10/09 09:04:37;;;;;;;8.65;3.65;;;;;;;13.85;100.00;101630.95;3485664;83;99211;-80
2022/10/09 09:10:25;;;;;;;8.55;3.15;;;;;;;14.67;100.00;101633.23;3494185;83;34892;-80
2022/10/09 09:15:54;;;;;;;13.13;4.60;;;;;;;15.37;99.21;101634.13;3488521;83;98841;-82
2022/10/09 09:21:16;;;;;;;9.80;3.22;;;;;;;16.27;97.16;101631.97;3499299;83;34885;-82
2022/10/09 09:26:21;;;;;;;8.70;2.80;;;;;;;16.98;93.53;101626.23;3472805;82;98773;-82
2022/10/09 09:31:29;;;;;;;8.65;2.55;;;;;;;17.62;92.00;101626.06;3476566;84;34942;-82
2022/10/09 09:36:36;;;;;;;10.70;2.63;;;;;;;18.23;89.46;101627.65;3493286;83;98780;-81
2022/10/09 09:41:40;;;;;;;9.90;2.55;;;;;;;18.66;86.28;101630.00;3488455;83;35149;-82
2022/10/09 09:46:43;;;;;;;10.60;2.40;;;;;;;19.08;84.00;101633.23;3472866;83;98791;-82
2022/10/09 09:51:45;;;;;;;6.58;2.37;;;;;;;19.59;82.61;101629.98;3504459;83;34875;-82
2022/10/09 09:56:46;;;;;;;8.58;2.30;;;;;;;19.93;80.92;101632.32;3483297;83;98920;-82
2022/10/09 10:01:47;;;;;;;7.47;2.02;;;;;;;20.37;77.98;101641.33;3488371;83;25873;-82
2022/10/09 10:06:48;;;;;;;7.97;2.00;;;;;;;20.65;75.27;101636.87;3482177;83;98734;-82
2022/10/09 10:12:04;;;;;;;7.40;2.00;;;;;;;20.84;72.08;101638.45;3494142;83;34819;-83
2022/10/09 10:17:09;;;;;;;7.72;2.20;;;;;;;20.97;69.48;101640.91;3474673;83;98732;-82
2022/10/09 10:22:25;;;;;;;7.35;1.60;;;;;;;21.18;70.88;101644.84;3488750;83;34822;-83
2022/10/09 10:27:34;;;;;;;8.00;2.47;;;;;;;21.22;68.48;101641.40;3491415;82;98562;-83
2022/10/09 10:32:56;;;;;;;10.38;1.92;;;;;;;21.44;67.85;101644.09;3485613;83;35270;-83
2022/10/09 10:38:32;;;;;;;5.58;1.95;;;;;;;21.53;64.90;101645.75;3493961;83;98745;-84
2022/10/09 10:43:49;;;;;;;6.87;1.20;;;;;;;21.30;65.07;101646.30;3481447;83;26192;-84
2022/10/09 10:48:51;;;;;;;5.83;1.32;;;;;;;21.11;63.85;101647.73;3482083;83;35388;-84
2022/10/09 10:54:14;;;;;;;7.72;1.32;;;;;;;21.02;63.04;101648.84;3494296;82;98909;-83
2022/10/09 10:59:46;;;;;;;6.00;1.20;;;;;;;20.66;60.21;101642.65;3493516;83;35525;-83
2022/10/09 11:05:21;;;;;;;7.17;1.65;;;;;;;20.11;59.74;101647.58;3487328;82;98541;-84
2022/10/09 11:10:58;;;;;;;6.15;1.25;;;;;;;20.07;61.20;101644.02;3487105;83;34892;-83
2022/10/09 11:16:49;;;;;;;6.15;1.50;;;;;;;20.04;60.18;101650.39;3486238;84;98892;-83
2022/10/09 11:22:21;;;;;;;6.12;1.60;;;;;;;19.98;60.61;101645.85;3496040;84;34856;-83
2022/10/09 11:33:06;;;;;;;7.80;1.50;;;;;;;19.66;58.15;101639.70;3940789;73;31625;-83
2022/10/09 11:38:30;;;;;;;9.00;2.17;;;;;;;19.35;59.38;101644.88;3819928;75;98572;-83
2022/10/09 11:43:52;;;;;;;8.60;2.58;;;;;;;19.24;59.22;101640.56;3820535;75;26315;-85
2022/10/09 11:49:22;;;;;;;9.33;2.45;;;;;;;19.00;58.19;101640.84;3816805;76;25829;-85
2022/10/09 11:54:26;;;;;;;7.87;2.02;;;;;;;18.85;59.82;101635.72;3811936;76;98800;-84
2022/10/09 11:59:32;;;;;;;4.15;1.52;;;;;;;18.81;60.04;101628.73;3824140;75;26776;-85
2022/10/09 12:04:34;;;;;;;4.00;1.55;;;;;;;18.62;60.24;101616.66;3816979;75;98883;-84
2022/10/09 12:09:42;;;;;;;4.97;1.15;;;;;;;18.54;60.82;101617.08;3823361;76;26457;-84
2022/10/09 12:14:46;;;;;;;7.25;1.47;;;;;;;18.51;61.63;101615.89;3811674;77;99018;-84
2022/10/09 12:19:54;;;;;;;6.65;1.60;;;;;;;18.40;60.50;101617.91;3831743;76;26511;-84
2022/10/09 12:25:00;;;;;;;7.05;1.60;;;;;;;18.29;60.34;101614.31;3798352;77;98821;-85
2022/10/09 12:30:15;;;;;;;6.97;2.17;;;;;;;18.23;61.31;101608.14;3727940;78;25991;-84
2022/10/09 12:35:36;;;;;;;9.83;1.70;;;;;;;18.18;60.35;101616.32;3737490;78;98937;-84
2022/10/09 12:40:41;;;;;;;6.95;1.62;;;;;;;17.93;60.09;101608.56;3745514;77;25859;-84
2022/10/09 12:45:45;;;;;;;5.05;1.22;;;;;;;17.72;59.88;101611.95;3745767;76;98776;-84
2022/10/09 12:50:47;;;;;;;7.25;1.37;;;;;;;17.58;61.19;101606.35;3760755;77;26492;-84
2022/10/09 12:55:54;;;;;;;5.20;1.10;;;;;;;17.41;61.48;101599.58;3773659;77;98653;-84
2022/10/09 13:01:02;;;;;;;4.97;1.15;;;;;;;17.22;60.34;101606.06;3818552;76;26539;-84
2022/10/09 13:06:14;;;;;;;6.12;1.32;;;;;;;17.01;60.25;101601.83;3780280;76;98895;-85
2022/10/09 13:11:39;;;;;;;3.98;1.15;;;;;;;16.82;60.92;101595.17;3742125;77;26039;-85
2022/10/09 13:16:42;;;;;;;3.72;1.37;;;;;;;16.77;61.84;101589.98;3757447;76;98715;-85
2022/10/09 13:21:43;;;;;;;6.75;1.40;;;;;;;16.65;61.30;101577.25;3770703;77;26018;-84
2022/10/09 13:26:44;;;;;;;3.65;0.98;;;;;;;16.57;60.63;101583.16;3727193;76;98923;-84
2022/10/09 13:31:44;;;;;;;3.93;0.93;;;;;;;16.47;61.64;101571.39;3704353;78;27871;-84
2022/10/09 13:36:45;;;;;;;6.13;1.00;;;;;;;16.45;62.23;101573.16;3769777;75;98635;-83
2022/10/09 13:41:51;;;;;;;2.40;1.05;;;;;;;16.34;61.83;101574.25;3752570;78;27483;-84
2022/10/09 13:46:52;;;;;;;2.52;1.15;;;;;;;16.31;63.20;101567.52;3707606;78;98616;-84
2022/10/09 13:51:53;;;;;;;3.93;0.90;;;;;;;16.27;64.28;101569.47;3724332;79;28835;-84
2022/10/09 13:56:54;;;;;;;4.90;1.00;;;;;;;16.21;64.00;101561.88;3734103;79;98792;-84
2022/10/09 14:01:54;;;;;;;4.43;1.10;;;;;;;16.11;64.09;101566.77;3707552;79;26891;-83
2022/10/09 14:06:55;;;;;;;5.13;1.10;;;;;;;16.02;64.01;101558.00;3717729;78;98763;-83
2022/10/09 14:11:56;;;;;;;5.90;1.10;;;;;;;15.91;63.98;101565.45;3716776;78;25897;-83
2022/10/09 14:16:57;;;;;;;3.62;0.90;;;;;;;15.77;65.45;101559.78;3711225;78;98639;-83
2022/10/09 14:21:57;;;;;;;2.47;1.05;;;;;;;15.64;65.81;101550.95;3714093;78;34845;-83
2022/10/09 14:26:58;;;;;;;5.35;0.90;;;;;;;15.54;65.46;101563.36;3724385;78;98452;-83
2022/10/09 14:31:59;;;;;;;2.67;0.85;;;;;;;15.46;66.30;101563.07;3738547;77;33982;-83
2022/10/09 14:37:00;;;;;;;6.87;1.50;;;;;;;15.25;66.16;101558.67;3721881;78;98666;-83
2022/10/09 14:42:00;;;;;;;26.50;14.15;;;;;;;15.14;66.43;101561.34;3729518;78;31054;-83
2022/10/09 14:47:01;;;;;;;9.70;4.50;;;;;;;15.01;66.60;101555.86;3730880;77;99180;-83
2022/10/09 14:52:02;;;;;;;4.10;2.27;;;;;;;14.82;66.63;101549.70;3738863;78;26222;-83
2022/10/09 14:57:03;;;;;;;3.63;1.23;;;;;;;14.70;67.64;101551.31;3725348;78;98426;-83
2022/10/09 15:02:05;;;;;;;4.28;1.62;;;;;;;14.60;68.93;101546.47;3756669;77;32478;-83
2022/10/09 15:07:06;;;;;;;5.28;1.45;;;;;;;14.49;68.67;101549.09;3701903;79;98683;-83
2022/10/09 15:12:07;;;;;;;4.78;1.52;;;;;;;14.35;68.89;101548.92;3701597;79;32621;-83
2022/10/09 15:17:08;;;;;;;4.87;1.65;;;;;;;14.23;69.53;101542.80;3696913;79;98331;-83
2022/10/09 15:22:11;;;;;;;4.08;1.45;;;;;;;14.10;69.92;101539.99;3766051;77;30647;-83
2022/10/09 15:27:11;;;;;;;3.35;1.20;;;;;;;13.99;70.38;101530.16;3678404;79;98618;-84
2022/10/09 15:32:12;;;;;;;3.10;1.20;;;;;;;13.86;70.89;101539.86;3711060;79;25872;-84
2022/10/09 15:37:13;;;;;;;5.00;1.43;;;;;;;13.77;71.26;101543.47;3705141;78;98715;-84
2022/10/09 15:42:14;;;;;;;4.07;1.13;;;;;;;13.62;71.31;101546.39;3728534;78;26742;-84
2022/10/09 15:47:14;;;;;;;3.73;1.50;;;;;;;13.48;71.53;101541.42;3715911;78;98956;-84
2022/10/09 15:52:15;;;;;;;3.87;1.30;;;;;;;13.38;72.22;101541.22;3733706;78;25809;-83
2022/10/09 15:57:16;;;;;;;7.75;1.80;;;;;;;13.27;72.85;101540.23;3681265;78;98478;-83
2022/10/09 16:02:17;;;;;;;5.45;2.00;;;;;;;13.12;73.54;101539.18;3676222;78;26488;-83
2022/10/09 16:07:18;;;;;;;6.60;2.30;;;;;;;13.00;73.75;101539.92;3676056;78;98357;-83
2022/10/09 16:12:18;;;;;;;9.80;4.10;;;;;;;12.88;74.41;101536.73;3684278;79;32566;-83
2022/10/09 16:17:19;;;;;;;13.27;5.53;;;;;;;12.77;74.88;101537.67;3692347;79;98682;-83
2022/10/09 16:22:20;;;;;;;9.37;4.53;;;;;;;12.64;75.20;101545.91;3682829;78;32627;-83
2022/10/09 16:27:21;;;;;;;12.43;5.57;;;;;;;12.51;75.62;101552.15;3719404;77;98578;-85
2022/10/09 16:32:22;;;;;;;17.90;7.77;;;;;;;12.33;75.79;101552.93;3740278;77;33186;-83
2022/10/09 16:37:23;;;;;;;17.03;9.97;;;;;;;12.20;76.46;101552.25;3740433;77;98742;-84
2022/10/09 16:42:24;;;;;;;13.18;7.03;;;;;;;12.10;76.85;101554.19;3759122;77;32833;-84
2022/10/09 16:47:25;;;;;;;14.07;6.70;;;;;;;11.94;77.09;101548.50;3739362;77;99071;-84
2022/10/09 16:52:26;;;;;;;10.67;5.70;;;;;;;11.83;77.57;101555.13;3753452;77;31728;-83
2022/10/09 16:57:27;;;;;;;17.87;9.10;;;;;;;11.70;77.65;101558.34;3753099;77;98693;-84
2022/10/09 17:02:28;;;;;;;11.10;5.83;;;;;;;11.56;78.11;101557.38;3743855;78;32574;-84
2022/10/09 17:07:29;;;;;;;13.63;7.00;;;;;;;11.46;78.50;101563.42;3747726;77;98832;-85
2022/10/09 17:12:31;;;;;;;16.63;8.23;;;;;;;11.36;78.90;101566.73;3739851;77;32126;-83
2022/10/09 17:17:32;;;;;;;16.90;9.63;;;;;;;11.24;79.21;101566.78;3744462;77;98534;-83
2022/10/09 17:22:33;;;;;;;18.20;10.73;;;;;;;11.14;79.33;101572.84;3762351;77;31636;-83
2022/10/09 17:27:34;;;;;;;20.20;10.17;;;;;;;11.02;79.73;101583.12;3763494;77;98697;-83
2022/10/09 17:32:34;;;;;;;21.83;11.60;;;;;;;10.90;79.91;101569.41;3702704;77;32032;-83
2022/10/09 17:37:35;;;;;;;22.37;12.23;;;;;;;10.78;80.18;101575.75;3670764;79;98722;-84
2022/10/09 17:42:36;;;;;;;20.94;11.90;;;;;;;10.68;80.59;101572.13;3670042;78;31662;-83
2022/10/09 17:47:37;;;;;;;17.40;11.00;;;;;;;10.56;80.78;101570.80;3672278;79;98981;-83
2022/10/09 17:52:38;;;;;;;20.20;11.93;;;;;;;10.47;81.20;101570.13;3664915;79;26419;-83
2022/10/09 17:57:39;;;;;;;20.00;11.73;;;;;;;10.38;81.48;101576.36;3686521;79;98728;-83
2022/10/09 18:02:39;;;;;;;20.57;11.37;;;;;;;10.29;81.76;101581.19;3676330;79;34853;-83
2022/10/09 18:07:40;;;;;;;20.23;11.20;;;;;;;10.21;82.05;101579.94;3670207;79;98684;-84
2022/10/09 18:12:42;;;;;;;24.03;12.30;;;;;;;10.13;82.25;101580.29;3693558;79;36119;-83
2022/10/09 18:17:42;;;;;;;26.80;13.87;;;;;;;10.06;82.43;101579.27;3652821;79;98468;-82
2022/10/09 18:22:43;;;;;;;23.97;13.03;;;;;;;9.96;82.78;101572.81;3660785;79;34841;-83
2022/10/09 18:27:44;;;;;;;25.05;12.90;;;;;;;9.89;82.90;101576.17;3651656;79;98721;-84
2022/10/09 18:32:45;;;;;;;23.20;13.13;;;;;;;9.82;83.12;101578.67;3708369;77;27500;-84
2022/10/09 18:37:46;;;;;;;25.60;13.87;;;;;;;9.74;83.27;101574.09;3730797;77;98278;-84
2022/10/09 18:42:46;;;;;;;27.77;14.87;;;;;;;9.66;83.31;101578.34;3757188;77;26402;-84
2022/10/09 18:47:47;;;;;;;44.33;20.67;;;;;;;9.59;83.61;101578.11;3749439;77;98429;-84
2022/10/09 18:52:48;;;;;;;57.23;26.53;;;;;;;9.53;83.85;101575.33;3742625;77;26717;-84
2022/10/09 18:57:49;;;;;;;54.53;24.90;;;;;;;9.46;84.04;101573.73;3736943;77;98358;-84
2022/10/09 19:02:50;;;;;;;44.50;22.40;;;;;;;9.41;84.34;101572.57;3751653;77;25873;-83
2022/10/09 19:07:52;;;;;;;43.90;22.42;;;;;;;9.34;84.51;101564.91;3728204;77;98295;-87
2022/10/09 19:12:53;;;;;;;41.03;21.07;;;;;;;9.28;84.66;101566.84;3724462;77;25890;-84
2022/10/09 19:17:54;;;;;;;38.10;21.30;;;;;;;9.23;84.94;101563.75;3736528;77;98304;-83
2022/10/09 19:22:55;;;;;;;39.03;24.07;;;;;;;9.16;84.98;101564.08;3746184;77;32458;-83
2022/10/09 19:27:56;;;;;;;38.70;21.70;;;;;;;9.11;85.32;101560.95;3730181;77;98619;-84
2022/10/09 19:32:57;;;;;;;52.78;32.70;;;;;;;9.06;85.51;101555.67;3749038;77;33793;-83
2022/10/09 19:37:58;;;;;;;83.97;47.17;;;;;;;9.02;85.53;101561.63;3731289;77;98278;-84
2022/10/09 19:43:01;;;;;;;57.87;30.53;;;;;;;8.97;85.80;101565.14;3738950;77;26718;-83
2022/10/09 19:48:02;;;;;;;38.55;20.10;;;;;;;8.90;86.07;101558.83;3740246;77;98316;-84
2022/10/09 19:53:05;;;;;;;44.27;23.03;;;;;;;8.86;86.19;101563.97;3748339;77;26814;-84
2022/10/09 19:58:06;;;;;;;39.35;22.05;;;;;;;8.80;86.48;101561.20;3733363;77;98507;-84
2022/10/09 20:03:07;;;;;;;41.63;20.60;;;;;;;8.80;86.67;101563.95;3756849;77;26045;-85
2022/10/09 20:08:08;;;;;;;38.97;20.67;;;;;;;8.76;86.81;101559.70;3728280;77;98738;-84
2022/10/09 20:13:09;;;;;;;31.93;19.27;;;;;;;8.73;86.91;101560.37;3755819;77;26478;-85
2022/10/09 20:18:09;;;;;;;34.33;19.67;;;;;;;8.71;87.23;101550.86;3741562;77;98354;-83
2022/10/09 20:23:10;;;;;;;33.17;17.23;;;;;;;8.66;87.16;101560.12;3743074;77;26187;-85
2022/10/09 20:28:12;;;;;;;28.63;14.80;;;;;;;8.64;87.64;101551.98;3743857;77;98414;-84
2022/10/09 20:33:12;;;;;;;33.40;19.67;;;;;;;8.61;87.66;101552.09;3713513;77;25885;-85
2022/10/09 20:38:13;;;;;;;33.67;19.63;;;;;;;8.60;87.88;101551.86;3671153;79;98486;-85
2022/10/09 20:43:14;;;;;;;31.20;17.37;;;;;;;8.59;87.94;101561.80;3668284;79;25928;-84
2022/10/09 20:48:16;;;;;;;36.28;19.05;;;;;;;8.56;87.99;101561.11;3662395;79;98707;-85
2022/10/09 20:53:17;;;;;;;38.45;17.20;;;;;;;8.53;88.14;101561.21;3673393;79;26460;-85
2022/10/09 20:58:18;;;;;;;42.87;32.10;;;;;;;8.50;88.18;101552.27;3664915;79;98567;-84
2022/10/09 21:03:19;;;;;;;46.20;33.00;;;;;;;8.47;88.33;101553.52;3682688;77;32878;-86
2022/10/09 21:08:20;;;;;;;51.80;38.40;;;;;;;8.45;88.30;101557.17;3668535;77;98560;-87
2022/10/09 21:13:20;;;;;;;46.13;33.57;;;;;;;8.40;88.54;101554.04;3593076;80;32864;-84
2022/10/09 21:18:21;;;;;;;63.93;30.20;;;;;;;8.27;88.56;101535.11;3631724;79;98332;-85
2022/10/09 21:23:22;;;;;;;99.73;62.87;;;;;;;8.31;88.09;101551.14;3609055;80;33154;-84
2022/10/09 21:28:24;;;;;;;61.17;33.77;;;;;;;8.24;88.42;101549.51;3580243;80;98613;-83
2022/10/09 21:33:24;;;;;;;75.83;28.03;;;;;;;8.16;88.47;101542.09;3687768;78;32880;-85
2022/10/09 21:38:25;;;;;;;77.50;30.15;;;;;;;8.13;88.91;101546.30;3726775;78;98584;-85
2022/10/09 21:43:26;;;;;;;72.17;29.17;;;;;;;8.12;88.91;101530.22;3723798;77;32381;-85
2022/10/09 21:48:27;;;;;;;57.83;23.93;;;;;;;8.08;88.93;101538.28;3699684;79;98678;-85
2022/10/09 21:53:28;;;;;;;44.83;19.23;;;;;;;8.05;89.13;101535.41;3721567;78;31630;-85
2022/10/09 21:58:28;;;;;;;37.42;15.95;;;;;;;8.00;89.22;101527.38;3706448;77;98318;-85
2022/10/09 22:03:33;;;;;;;32.10;16.60;;;;;;;7.94;88.98;101530.89;3710219;79;31629;-84
2022/10/09 22:08:35;;;;;;;27.00;14.80;;;;;;;7.91;89.28;101536.23;3697887;77;98194;-85
2022/10/09 22:13:36;;;;;;;23.27;11.45;;;;;;;7.86;89.61;101538.59;3704253;78;32965;-85
2022/10/09 22:18:37;;;;;;;29.47;12.03;;;;;;;7.83;89.72;101533.78;3706766;78;98190;-85
2022/10/09 22:23:39;;;;;;;25.97;12.37;;;;;;;7.82;89.92;101528.08;3722819;78;31566;-84
2022/10/09 22:28:40;;;;;;;33.47;20.47;;;;;;;7.78;90.04;101521.64;3820689;76;98387;-85
2022/10/09 22:33:41;;;;;;;103.80;37.37;;;;;;;7.76;90.08;101510.77;3808491;76;31643;-86
2022/10/09 22:38:43;;;;;;;51.68;22.15;;;;;;;7.70;90.17;101513.47;3805990;76;98293;-85
2022/10/09 22:43:49;;;;;;;39.10;16.80;;;;;;;7.69;90.33;101511.28;3788796;77;98545;-84
2022/10/09 22:48:50;;;;;;;28.47;14.85;;;;;;;7.66;90.43;101511.16;3799490;76;33340;-85
2022/10/09 22:53:51;;;;;;;35.57;19.77;;;;;;;7.65;90.33;101503.52;3798809;76;98731;-85
2022/10/09 22:58:53;;;;;;;80.10;29.20;;;;;;;7.63;90.50;101504.39;3802536;76;31659;-85
2022/10/09 23:03:53;;;;;;;42.33;18.87;;;;;;;7.56;90.63;101503.30;3794254;76;98451;-85
2022/10/09 23:08:55;;;;;;;31.90;16.97;;;;;;;7.55;90.75;101506.62;3798913;76;31637;-85
2022/10/09 23:13:59;;;;;;;31.33;15.15;;;;;;;7.52;90.95;101507.28;3778888;76;98490;-85
2022/10/09 23:19:02;;;;;;;27.50;14.78;;;;;;;7.49;90.98;101498.37;3789425;76;32904;-85
2022/10/09 23:24:04;;;;;;;62.73;25.65;;;;;;;7.49;91.14;101494.26;3779708;77;98738;-85
2022/10/09 23:29:15;;;;;;;43.70;18.40;;;;;;;7.50;91.36;101496.41;3799903;76;32943;-85
2022/10/09 23:34:16;;;;;;;31.70;15.68;;;;;;;7.49;91.23;101496.18;3790640;76;98504;-85